createdAt,value
2024-01-19T00:02:59.803Z,1.83
2024-01-19T00:05:46.739Z,1.82
2024-01-19T00:08:35.625Z,1.79
2024-01-19T00:11:22.335Z,1.78
2024-01-19T00:14:09.301Z,1.75
2024-01-19T00:16:57.488Z,1.70
2024-01-19T00:19:44.311Z,1.73
2024-01-19T00:22:30.819Z,1.78
2024-01-19T00:25:17.331Z,1.81
2024-01-19T00:28:05.213Z,1.80
2024-01-19T00:30:52.230Z,1.74
2024-01-19T00:33:39.260Z,1.70
2024-01-19T00:36:26.258Z,1.71
2024-01-19T00:39:13.088Z,1.71
2024-01-19T00:41:59.985Z,1.71
2024-01-19T00:44:46.684Z,1.67
2024-01-19T00:47:35.387Z,1.66
2024-01-19T00:50:22.161Z,1.61
2024-01-19T00:53:08.874Z,1.51
2024-01-19T00:55:55.507Z,1.39
2024-01-19T00:58:43.663Z,1.33
2024-01-19T01:01:30.670Z,1.27
2024-01-19T01:04:17.908Z,1.21
2024-01-19T01:07:04.946Z,1.13
2024-01-19T01:09:52.112Z,1.10
2024-01-19T01:12:40.174Z,1.08
2024-01-19T01:15:27.322Z,1.09
2024-01-19T01:18:14.492Z,1.11
2024-01-19T01:21:02.941Z,1.12
2024-01-19T01:23:49.623Z,1.07
2024-01-19T01:26:36.259Z,0.98
2024-01-19T01:29:24.011Z,0.97
2024-01-19T01:32:10.825Z,0.96
2024-01-19T01:34:57.369Z,0.93
2024-01-19T01:37:44.298Z,0.90
2024-01-19T01:40:31.412Z,0.87
2024-01-19T01:43:26.521Z,0.83
2024-01-19T01:46:13.626Z,0.80
2024-01-19T01:49:01.032Z,0.76
2024-01-19T01:51:48.422Z,0.67
2024-01-19T01:54:35.164Z,0.56
2024-01-19T01:57:24.314Z,0.51
2024-01-19T02:00:14.859Z,0.45
2024-01-19T02:03:03.029Z,0.39
2024-01-19T02:05:50.102Z,0.34
2024-01-19T02:08:37.144Z,0.31
2024-01-19T02:11:23.873Z,0.32
2024-01-19T02:14:11.920Z,0.26
2024-01-19T02:16:58.389Z,0.17
2024-01-19T02:19:45.152Z,0.19
2024-01-19T02:25:58.722Z,0.31
2024-01-19T02:28:45.609Z,0.39
2024-01-19T02:31:32.633Z,0.37
2024-01-19T02:34:19.528Z,0.38
2024-01-19T02:37:06.360Z,0.44
2024-01-19T02:39:52.854Z,0.53
2024-01-19T02:42:39.657Z,0.60
2024-01-19T02:45:26.326Z,0.67
2024-01-19T02:48:14.358Z,0.73
2024-01-19T02:51:01.531Z,0.74
2024-01-19T02:53:48.762Z,0.69
2024-01-19T02:56:35.614Z,0.74
2024-01-19T02:59:22.245Z,0.80
2024-01-19T03:02:09.035Z,0.79
2024-01-19T03:04:55.938Z,0.80
2024-01-19T03:07:42.488Z,0.90
2024-01-19T03:10:29.057Z,0.97
2024-01-19T03:13:16.210Z,1.07
2024-01-19T03:16:07.640Z,1.07
2024-01-19T03:19:01.580Z,1.12
2024-01-19T03:21:48.900Z,1.10
2024-01-19T03:24:37.195Z,1.02
2024-01-19T03:27:23.847Z,0.89
2024-01-19T03:30:11.105Z,0.76
2024-01-19T03:32:57.729Z,0.55
2024-01-19T03:35:45.079Z,0.38
2024-01-19T03:38:32.464Z,0.25
2024-01-19T03:41:18.954Z,0.17
2024-01-19T03:44:05.798Z,0.09
2024-01-19T03:46:52.811Z,-0.03
2024-01-19T03:49:40.691Z,-0.05
2024-01-19T03:52:27.249Z,-0.05
2024-01-19T03:55:15.817Z,-0.03
2024-01-19T03:58:05.117Z,-0.08
2024-01-19T04:00:52.549Z,-0.05
2024-01-19T04:03:39.504Z,-0.00
2024-01-19T04:06:31.126Z,0.03
2024-01-19T04:09:18.256Z,0.02
2024-01-19T04:12:15.872Z,0.00
2024-01-19T04:15:02.498Z,-0.02
2024-01-19T04:17:49.466Z,-0.03
2024-01-19T04:20:36.753Z,0.04
2024-01-19T04:23:23.589Z,0.09
2024-01-19T04:26:10.483Z,-0.02
2024-01-19T04:28:56.938Z,-0.08
2024-01-19T04:31:43.570Z,-0.08
2024-01-19T04:34:30.317Z,-0.13
2024-01-19T04:37:16.903Z,-0.19
2024-01-19T04:40:03.784Z,-0.20
2024-01-19T04:42:50.488Z,-0.20
2024-01-19T04:45:37.085Z,-0.16
2024-01-19T04:48:24.171Z,-0.13
2024-01-19T04:51:11.228Z,-0.10
2024-01-19T04:54:00.003Z,0.01
2024-01-19T04:56:46.827Z,0.07
2024-01-19T04:59:33.491Z,0.13
2024-01-19T05:02:20.549Z,0.18
2024-01-19T05:05:07.490Z,0.24
2024-01-19T05:07:54.355Z,0.25
2024-01-19T05:10:41.232Z,0.32
2024-01-19T05:13:28.083Z,0.40
2024-01-19T05:16:14.988Z,0.46
2024-01-19T05:19:01.930Z,0.50
2024-01-19T05:21:48.851Z,0.52
2024-01-19T05:24:35.432Z,0.51
2024-01-19T05:27:22.333Z,0.45
2024-01-19T05:30:10.259Z,0.44
2024-01-19T05:32:57.392Z,0.45
2024-01-19T05:35:46.978Z,0.44
2024-01-19T05:38:34.019Z,0.42
2024-01-19T05:41:21.760Z,0.45
2024-01-19T05:44:08.592Z,0.35
2024-01-19T05:46:55.864Z,0.31
2024-01-19T05:49:42.786Z,0.39
2024-01-19T05:52:29.806Z,0.36
2024-01-19T05:55:16.483Z,0.31
2024-01-19T05:58:04.660Z,0.28
2024-01-19T06:00:51.496Z,0.27
2024-01-19T06:03:39.346Z,0.27
2024-01-19T06:06:27.005Z,0.23
2024-01-19T06:09:14.322Z,0.12
2024-01-19T06:12:01.107Z,0.05
2024-01-19T06:14:47.707Z,0.02
2024-01-19T06:17:34.176Z,0.02
2024-01-19T06:20:21.693Z,0.00
2024-01-19T06:23:09.763Z,0.02
2024-01-19T06:25:56.617Z,0.03
2024-01-19T06:28:43.647Z,0.04
2024-01-19T06:31:30.357Z,0.04
2024-01-19T06:34:17.252Z,0.02
2024-01-19T06:37:03.958Z,0.06
2024-01-19T06:39:50.904Z,0.12
2024-01-19T06:42:38.606Z,0.18
2024-01-19T06:45:25.451Z,0.21
2024-01-19T06:48:12.784Z,0.22
2024-01-19T06:50:59.945Z,0.20
2024-01-19T06:53:46.899Z,0.12
2024-01-19T06:56:34.069Z,0.11
2024-01-19T06:59:21.354Z,0.09
2024-01-19T07:02:08.831Z,0.10
2024-01-19T07:04:55.376Z,0.12
2024-01-19T07:07:45.112Z,0.12
2024-01-19T07:10:31.852Z,0.16
2024-01-19T07:13:18.244Z,0.22
2024-01-19T07:16:06.678Z,0.28
2024-01-19T07:18:53.597Z,0.32
2024-01-19T07:21:41.552Z,0.36
2024-01-19T07:24:31.299Z,0.33
2024-01-19T07:27:18.186Z,0.32
2024-01-19T07:30:06.480Z,0.30
2024-01-19T07:33:01.670Z,0.36
2024-01-19T07:35:54.222Z,0.40
2024-01-19T07:38:41.214Z,0.43
2024-01-19T07:41:28.120Z,0.48
2024-01-19T07:44:17.668Z,0.46
2024-01-19T07:47:06.848Z,0.45
2024-01-19T07:49:54.031Z,0.46
2024-01-19T07:52:41.056Z,0.46
2024-01-19T07:55:37.022Z,0.46
2024-01-19T07:58:26.663Z,0.42
2024-01-19T08:01:13.535Z,0.38
2024-01-19T08:04:00.651Z,0.32
2024-01-19T08:06:47.843Z,0.28
2024-01-19T08:09:35.179Z,0.30
2024-01-19T08:12:22.070Z,0.31
2024-01-19T08:15:09.823Z,0.27
2024-01-19T08:17:57.462Z,0.26
2024-01-19T08:20:44.461Z,0.28
2024-01-19T08:23:35.191Z,0.31
2024-01-19T08:26:22.299Z,0.30
2024-01-19T08:29:09.199Z,0.28
2024-01-19T08:31:56.697Z,0.32
2024-01-19T08:34:44.606Z,0.37
2024-01-19T08:37:31.563Z,0.38
2024-01-19T08:40:18.852Z,0.46
2024-01-19T08:43:05.802Z,0.56
2024-01-19T08:45:52.649Z,0.61
2024-01-19T08:48:44.154Z,0.72
2024-01-19T08:51:31.204Z,0.83
2024-01-19T08:54:18.693Z,0.87
2024-01-19T08:57:06.275Z,0.96
2024-01-19T08:59:53.827Z,1.04
2024-01-19T09:02:46.918Z,1.15
2024-01-19T09:05:41.435Z,1.21
2024-01-19T09:08:28.629Z,1.27
2024-01-19T09:11:15.384Z,1.33
2024-01-19T09:14:03.657Z,1.38
2024-01-19T09:16:50.631Z,1.33
2024-01-19T09:19:39.953Z,1.36
2024-01-19T09:22:28.322Z,1.41
2024-01-19T09:25:15.853Z,1.35
2024-01-19T09:28:03.725Z,1.30
2024-01-19T09:30:50.993Z,1.36
2024-01-19T09:33:37.932Z,1.41
2024-01-19T09:36:25.081Z,1.45
2024-01-19T09:39:12.366Z,1.44
2024-01-19T09:42:09.015Z,1.43
2024-01-19T09:45:06.124Z,1.43
2024-01-19T09:48:05.896Z,1.44
2024-01-19T09:50:56.732Z,1.45
2024-01-19T09:53:50.064Z,1.45
2024-01-19T09:56:38.501Z,1.45
2024-01-19T09:59:26.334Z,1.49
2024-01-19T10:02:16.606Z,1.44
2024-01-19T10:05:03.882Z,1.39
2024-01-19T10:07:56.864Z,1.39
2024-01-19T10:10:45.037Z,1.44
2024-01-19T10:13:31.868Z,1.43
2024-01-19T10:16:18.531Z,1.45
2024-01-19T10:19:06.002Z,1.56
2024-01-19T10:21:53.741Z,1.60
2024-01-19T10:24:40.263Z,1.59
2024-01-19T10:27:51.692Z,1.64
2024-01-19T10:30:38.667Z,1.60
2024-01-19T10:33:25.464Z,1.53
2024-01-19T10:36:12.596Z,1.54
2024-01-19T10:39:15.911Z,1.60
2024-01-19T10:42:08.526Z,1.59
2024-01-19T10:44:55.421Z,1.63
2024-01-19T10:47:44.241Z,1.63
2024-01-19T10:50:32.249Z,1.62
2024-01-19T10:53:19.069Z,1.55
2024-01-19T10:56:05.727Z,1.55
2024-01-19T10:58:53.020Z,1.55
2024-01-19T11:01:40.339Z,1.51
2024-01-19T11:04:27.792Z,1.51
2024-01-19T11:07:14.940Z,1.57
2024-01-19T11:10:01.673Z,1.62
2024-01-19T11:12:58.161Z,1.64
2024-01-19T11:15:52.643Z,1.70
2024-01-19T11:18:39.928Z,1.79
2024-01-19T11:21:27.369Z,1.85
2024-01-19T11:24:16.876Z,1.94
2024-01-19T11:27:24.481Z,2.06
2024-01-19T11:31:06.524Z,2.11
2024-01-19T11:33:54.550Z,2.08
2024-01-19T11:36:50.549Z,2.12
2024-01-19T11:39:45.216Z,2.21
2024-01-19T11:42:35.036Z,2.23
2024-01-19T11:45:28.026Z,2.23
2024-01-19T11:48:41.414Z,2.26
2024-01-19T11:51:33.610Z,2.31
2024-01-19T11:54:27.240Z,2.22
2024-01-19T11:57:22.228Z,2.18
2024-01-19T12:00:09.673Z,2.27
2024-01-19T12:02:57.239Z,2.26
2024-01-19T12:05:46.137Z,2.23
2024-01-19T12:08:34.234Z,2.26
2024-01-19T12:11:22.372Z,2.23
2024-01-19T12:14:14.069Z,2.26
2024-01-19T12:17:01.057Z,2.35
2024-01-19T12:19:53.523Z,2.36
2024-01-19T12:22:40.254Z,2.40
2024-01-19T12:25:27.678Z,2.45
2024-01-19T12:28:16.803Z,2.53
2024-01-19T12:31:04.145Z,2.59
2024-01-19T12:33:51.136Z,2.61
2024-01-19T12:36:37.652Z,2.53
2024-01-19T12:39:24.581Z,2.56
2024-01-19T12:42:11.355Z,2.58
2024-01-19T12:45:00.458Z,2.58
2024-01-19T12:47:48.995Z,2.58
2024-01-19T12:50:36.225Z,2.60
2024-01-19T12:53:23.107Z,2.58
2024-01-19T12:56:27.309Z,2.55
2024-01-19T12:59:17.250Z,2.49
2024-01-19T13:02:04.402Z,2.48
2024-01-19T13:04:51.376Z,2.46
2024-01-19T13:07:38.344Z,2.54
2024-01-19T13:10:25.179Z,2.66
2024-01-19T13:13:18.421Z,2.58
2024-01-19T13:16:07.050Z,2.53
2024-01-19T13:19:11.794Z,2.48
2024-01-19T13:22:05.666Z,2.44
2024-01-19T13:24:53.944Z,2.34
2024-01-19T13:27:40.833Z,2.29
2024-01-19T13:30:31.035Z,2.20
2024-01-19T13:33:18.095Z,2.10
2024-01-19T13:36:06.081Z,2.08
2024-01-19T13:38:52.889Z,2.06
2024-01-19T13:41:39.734Z,2.00
2024-01-19T13:44:27.048Z,2.00
2024-01-19T13:47:13.805Z,2.00
2024-01-19T13:50:02.885Z,1.98
2024-01-19T13:52:50.282Z,1.89
2024-01-19T13:55:37.163Z,1.89
2024-01-19T13:58:23.899Z,1.83
2024-01-19T14:01:11.798Z,1.73
2024-01-19T14:03:58.777Z,1.65
2024-01-19T14:06:46.771Z,1.65
2024-01-19T14:09:33.861Z,1.66
2024-01-19T14:12:20.846Z,1.63
2024-01-19T14:15:09.120Z,1.61
2024-01-19T14:17:56.437Z,1.62
2024-01-19T14:20:46.849Z,1.65
2024-01-19T14:23:34.219Z,1.64
2024-01-19T14:26:21.703Z,1.55
2024-01-19T14:29:11.624Z,1.51
2024-01-19T14:32:00.152Z,1.52
2024-01-19T14:34:53.385Z,1.50
2024-01-19T14:37:43.527Z,1.44
2024-01-19T14:40:30.510Z,1.43
2024-01-19T14:43:17.356Z,1.42
2024-01-19T14:46:04.641Z,1.35
2024-01-19T14:48:52.224Z,1.29
2024-01-19T14:51:39.730Z,1.25
2024-01-19T14:54:27.944Z,1.21
2024-01-19T14:57:14.790Z,1.14
2024-01-19T15:00:02.644Z,1.11
2024-01-19T15:02:50.063Z,1.07
2024-01-19T15:05:36.879Z,1.00
2024-01-19T15:08:23.857Z,0.94
2024-01-19T15:11:10.858Z,0.87
2024-01-19T15:13:57.747Z,0.81
2024-01-19T15:16:44.853Z,0.70
2024-01-19T15:19:31.833Z,0.62
2024-01-19T15:22:18.366Z,0.57
2024-01-19T15:25:08.693Z,0.50
2024-01-19T15:27:55.189Z,0.43
2024-01-19T15:30:44.027Z,0.37
2024-01-19T15:33:31.883Z,0.30
2024-01-19T15:36:20.175Z,0.23
2024-01-19T15:39:08.177Z,0.25
2024-01-19T15:41:55.336Z,0.22
2024-01-19T15:44:43.287Z,0.28
2024-01-19T15:47:32.745Z,0.31
2024-01-19T15:50:19.719Z,0.26
2024-01-19T15:53:09.309Z,0.30
2024-01-19T15:55:56.339Z,0.33
2024-01-19T15:58:45.861Z,0.38
2024-01-19T16:01:33.460Z,0.41
2024-01-19T16:04:20.569Z,0.40
2024-01-19T16:07:07.612Z,0.40
2024-01-19T16:09:54.704Z,0.43
2024-01-19T16:12:41.384Z,0.47
2024-01-19T16:15:28.149Z,0.47
2024-01-19T16:18:16.491Z,0.45
2024-01-19T16:21:04.977Z,0.36
2024-01-19T16:23:52.136Z,0.32
2024-01-19T16:26:44.160Z,0.28
2024-01-19T16:29:31.463Z,0.18
2024-01-19T16:32:18.439Z,0.12
2024-01-19T16:35:06.157Z,0.09
2024-01-19T16:37:56.703Z,0.08
2024-01-19T16:40:43.715Z,0.10
2024-01-19T16:43:30.738Z,0.07
2024-01-19T16:46:20.659Z,0.10
2024-01-19T16:49:07.617Z,0.19
2024-01-19T16:51:54.070Z,0.24
2024-01-19T16:54:43.464Z,0.29
2024-01-19T16:57:31.107Z,0.37
2024-01-19T17:00:19.211Z,0.48
2024-01-19T17:03:07.049Z,0.54
2024-01-19T17:05:54.103Z,0.60
2024-01-19T17:08:45.275Z,0.65
2024-01-19T17:11:32.551Z,0.65
2024-01-19T17:14:19.119Z,0.67
2024-01-19T17:17:06.380Z,0.67
2024-01-19T17:19:53.375Z,0.68
2024-01-19T17:22:40.445Z,0.69
2024-01-19T17:25:27.346Z,0.69
2024-01-19T17:28:15.471Z,0.67
2024-01-19T17:31:02.254Z,0.66
2024-01-19T17:34:01.355Z,0.65
2024-01-19T17:36:55.996Z,0.64
2024-01-19T17:39:45.004Z,0.66
2024-01-19T17:42:32.081Z,0.71
2024-01-19T17:45:22.424Z,0.74
2024-01-19T17:48:10.895Z,0.79
2024-01-19T17:50:57.661Z,0.83
2024-01-19T17:53:44.441Z,0.84
2024-01-19T17:56:32.630Z,0.84
2024-01-19T17:59:19.791Z,0.85
2024-01-19T18:02:08.206Z,0.84
2024-01-19T18:04:57.867Z,0.81
2024-01-19T18:07:44.825Z,0.80
2024-01-19T18:10:32.011Z,0.78
2024-01-19T18:13:19.454Z,0.80
2024-01-19T18:16:07.814Z,0.86
2024-01-19T18:18:56.350Z,0.87
2024-01-19T18:21:44.325Z,0.89
2024-01-19T18:24:32.946Z,0.92
2024-01-19T18:27:21.357Z,0.89
2024-01-19T18:30:09.702Z,0.91
2024-01-19T18:32:57.047Z,0.90
2024-01-19T18:35:44.677Z,0.87
2024-01-19T18:38:32.573Z,0.85
2024-01-19T18:41:19.764Z,0.86
2024-01-19T18:44:07.029Z,0.86
2024-01-19T18:46:54.508Z,0.88
2024-01-19T18:49:41.702Z,0.88
2024-01-19T18:52:28.701Z,0.86
2024-01-19T18:55:15.928Z,0.91
2024-01-19T18:58:06.670Z,0.90
2024-01-19T19:00:55.289Z,0.87
2024-01-19T19:03:43.524Z,0.79
2024-01-19T19:06:31.082Z,0.77
2024-01-19T19:09:17.825Z,0.80
2024-01-19T19:12:05.931Z,0.80
2024-01-19T19:14:56.504Z,0.77
2024-01-19T19:17:43.299Z,0.78
2024-01-19T19:20:31.265Z,0.73
2024-01-19T19:23:18.129Z,0.70
2024-01-19T19:26:16.800Z,0.74
2024-01-19T19:29:04.119Z,0.74
2024-01-19T19:31:52.041Z,0.75
2024-01-19T19:34:40.248Z,0.78
2024-01-19T19:37:27.393Z,0.79
2024-01-19T19:40:14.050Z,0.85
2024-01-19T19:43:02.639Z,0.87
2024-01-19T19:45:51.765Z,0.83
2024-01-19T19:48:40.066Z,0.82
2024-01-19T19:51:28.386Z,0.83
2024-01-19T19:54:15.208Z,0.80
2024-01-19T19:57:03.281Z,0.78
2024-01-19T19:59:51.191Z,0.76
2024-01-19T20:02:38.042Z,0.75
2024-01-19T20:05:26.476Z,0.74
2024-01-19T20:08:13.272Z,0.72
2024-01-19T20:11:00.309Z,0.73
2024-01-19T20:13:47.243Z,0.72
2024-01-19T20:16:35.277Z,0.75
2024-01-19T20:19:25.692Z,0.75
2024-01-19T20:22:12.751Z,0.79
2024-01-19T20:25:00.681Z,0.82
2024-01-19T20:27:47.623Z,0.81
2024-01-19T20:30:34.351Z,0.79
2024-01-19T20:33:21.240Z,0.81
2024-01-19T20:36:08.611Z,0.83
2024-01-19T20:38:55.853Z,0.87
2024-01-19T20:41:44.496Z,0.89
2024-01-19T20:44:31.498Z,0.95
2024-01-19T20:47:18.293Z,0.99
2024-01-19T20:50:05.953Z,0.97
2024-01-19T20:52:52.488Z,1.02
2024-01-19T20:55:40.181Z,1.01
2024-01-19T20:58:28.621Z,0.98
2024-01-19T21:01:15.156Z,0.97
2024-01-19T21:04:02.811Z,0.96
2024-01-19T21:06:49.414Z,0.93
2024-01-19T21:09:36.303Z,0.94
2024-01-19T21:12:27.264Z,0.97
2024-01-19T21:15:14.750Z,0.97
2024-01-19T21:18:01.670Z,0.98
2024-01-19T21:20:49.126Z,0.99
2024-01-19T21:23:36.006Z,0.99
2024-01-19T21:26:25.410Z,0.94
2024-01-19T21:29:12.729Z,0.89
2024-01-19T21:31:59.899Z,0.89
2024-01-19T21:34:47.054Z,0.84
2024-01-19T21:37:34.021Z,0.80
2024-01-19T21:40:21.541Z,0.84
2024-01-19T21:43:08.720Z,0.88
2024-01-19T21:45:56.042Z,0.86
2024-01-19T21:48:42.936Z,0.87
2024-01-19T21:51:30.283Z,0.85
2024-01-19T21:54:17.776Z,0.85
2024-01-19T21:57:07.565Z,0.83
2024-01-19T21:59:57.541Z,0.78
2024-01-19T22:02:47.964Z,0.79
2024-01-19T22:05:35.645Z,0.82
2024-01-19T22:08:25.110Z,0.83
2024-01-19T22:11:14.334Z,0.79
2024-01-19T22:14:01.354Z,0.79
2024-01-19T22:16:48.020Z,0.76
2024-01-19T22:19:35.109Z,0.75
2024-01-19T22:22:21.809Z,0.75
2024-01-19T22:25:08.563Z,0.78
2024-01-19T22:27:55.427Z,0.72
2024-01-19T22:30:42.833Z,0.74
2024-01-19T22:33:30.517Z,0.75
2024-01-19T22:36:19.600Z,0.78
2024-01-19T22:39:07.598Z,0.80
2024-01-19T22:42:09.711Z,0.78
2024-01-19T22:44:56.746Z,0.81
2024-01-19T22:47:43.766Z,0.80
2024-01-19T22:50:30.354Z,0.79
2024-01-19T22:53:17.363Z,0.83
2024-01-19T22:56:04.855Z,0.86
2024-01-19T22:58:52.083Z,0.86
2024-01-19T23:01:40.738Z,0.92
2024-01-19T23:04:27.368Z,0.85
2024-01-19T23:07:14.387Z,0.82
2024-01-19T23:10:01.296Z,0.76
2024-01-19T23:12:49.472Z,0.76
2024-01-19T23:15:36.184Z,0.81
2024-01-19T23:18:23.120Z,0.83
2024-01-19T23:21:10.828Z,0.85
2024-01-19T23:23:58.000Z,0.84
2024-01-19T23:26:45.383Z,0.76
2024-01-19T23:29:32.602Z,0.70
2024-01-19T23:32:19.501Z,0.69
2024-01-19T23:35:08.426Z,0.73
2024-01-19T23:37:55.883Z,0.75
2024-01-19T23:40:42.992Z,0.78
2024-01-19T23:43:30.336Z,0.78
2024-01-19T23:46:17.545Z,0.71
2024-01-19T23:49:04.209Z,0.68
2024-01-19T23:51:53.474Z,0.70
2024-01-19T23:54:40.427Z,0.65
2024-01-19T23:57:27.264Z,0.66
